Yuho Maru No.3 — JD2491 — position and weather

sailwx.info

Track history (hours):
 
Tides and Currents Weather Stations Pressure Air Temp Water Temp Dewpoint Dewpoint Depression Visibility Wind Speed Wind Dir Waves Ship Positions

Yuho Maru No.3

Last reported at 2014-Aug-21 09:34 UTC. Time now 2014-Aug-21 10:17 UTC.
Position N 35°36' E 140°06'.

Length 65 m; draft 4.2 m.

Type: Tanker. MMSI: 431000336.

Date/timePositionNaut miles runAvg speedWind from/ knotsBaromVisibWave heightAir tempDewpointWater temp
2014-Aug-21 09:34N 35°36' E 140°06'0 0.0
2014-Aug-21 08:34N 35°36' E 140°06'0 0.0
2014-Aug-21 07:33N 35°36' E 140°06'0 0.0
2014-Aug-21 06:33N 35°36' E 140°06'0 0.0
2014-Aug-21 05:33N 35°36' E 140°06'0 0.0
2014-Aug-21 04:34N 35°36' E 140°06'0 0.0
2014-Aug-21 03:33N 35°36' E 140°06'0 0.0
2014-Aug-21 02:33N 35°36' E 140°06'0 0.0
2014-Aug-21 01:33N 35°36' E 140°06'0 0.0
2014-Aug-21 00:33N 35°36' E 140°06'0 0.0
2014-Aug-20 23:33N 35°36' E 140°06'0 0.0
2014-Aug-20 22:33N 35°36' E 140°06'0 0.0
2014-Aug-20 21:33N 35°36' E 140°06'0 0.0
2014-Aug-20 20:34N 35°36' E 140°06'0 0.0
2014-Aug-20 19:33N 35°36' E 140°06'0 0.0
2014-Aug-20 18:33N 35°36' E 140°06'0 0.0
2014-Aug-20 17:34N 35°36' E 140°06'0 0.0
2014-Aug-20 16:34N 35°36' E 140°06'0 0.0
2014-Aug-20 15:33N 35°36' E 140°06'0 0.0
2014-Aug-20 14:33N 35°36' E 140°06'0 0.0
2014-Aug-20 13:34N 35°36' E 140°06'0 0.0
2014-Aug-20 12:33N 35°36' E 140°06'0 0.0
2014-Aug-20 11:34N 35°36' E 140°06'0 0.0
2014-Aug-20 10:34N 35°36' E 140°06'0 0.0
2014-Aug-20 09:33N 35°36' E 140°06'0 0.0
2014-Aug-20 08:33N 35°36' E 140°06'0 0.0
2014-Aug-20 07:33N 35°36' E 140°06'0 0.0
2014-Aug-20 06:33N 35°36' E 140°06'0 0.0
2014-Aug-20 05:33N 35°36' E 140°06'0 0.0
2014-Aug-20 04:33N 35°36' E 140°06'0 0.0
2014-Aug-20 03:33N 35°36' E 140°06'0 0.0
2014-Aug-20 02:34N 35°36' E 140°06'0 0.0
2014-Aug-20 01:34N 35°36' E 140°06'0 0.0
2014-Aug-20 00:34N 35°36' E 140°06'0 0.0
2014-Aug-19 23:34N 35°36' E 140°06'0 0.0
2014-Aug-19 22:33N 35°36' E 140°06'0 0.0
2014-Aug-19 21:33N 35°36' E 140°06'0 0.0
2014-Aug-19 20:33N 35°36' E 140°06'0 0.0
2014-Aug-19 19:33N 35°36' E 140°06'0 0.0
2014-Aug-19 18:34N 35°36' E 140°06'0 0.0
2014-Aug-19 17:34N 35°36' E 140°06'0 0.0
2014-Aug-19 16:33N 35°36' E 140°06'0 0.0
2014-Aug-19 15:33N 35°36' E 140°06'0 0.0
2014-Aug-19 14:34N 35°36' E 140°06'0 0.0
2014-Aug-19 13:33N 35°36' E 140°06'0 0.0
2014-Aug-19 12:33N 35°36' E 140°06'0 0.0
2014-Aug-19 11:34N 35°36' E 140°06'0 0.0
2014-Aug-19 10:34N 35°36' E 140°06'0 0.0
2014-Aug-19 09:33N 35°36' E 140°06'0 0.0
2014-Aug-19 08:33N 35°36' E 140°06'0 0.0
2014-Aug-19 07:33N 35°36' E 140°06'0 0.0
2014-Aug-19 06:33N 35°36' E 140°06'0 0.0
2014-Aug-19 05:33N 35°36' E 140°06'0 0.0
2014-Aug-19 04:33N 35°36' E 140°06'0 0.0
2014-Aug-19 03:33N 35°36' E 140°06'1111.0
2014-Aug-19 02:33N 35°35' E 139°53'3 3.1
2014-Aug-19 01:34N 35°37' E 139°50'3 2.9
2014-Aug-19 00:33N 35°35' E 139°52'0 0.0
2014-Aug-18 23:33N 35°35' E 139°52'0 0.0
2014-Aug-18 22:33N 35°35' E 139°52'0 0.0
2014-Aug-18 21:33N 35°35' E 139°52'0 0.0
2014-Aug-18 20:33N 35°35' E 139°52'0 0.0
2014-Aug-18 19:34N 35°35' E 139°52'0 0.0
2014-Aug-18 18:33N 35°35' E 139°52'0 0.0
2014-Aug-18 17:33N 35°35' E 139°52'0 0.0
2014-Aug-18 16:33N 35°35' E 139°52'0 0.0
2014-Aug-18 15:34N 35°35' E 139°52'0 0.0
2014-Aug-18 14:34N 35°35' E 139°52'0 0.0
2014-Aug-18 13:34N 35°35' E 139°52'0 0.0
2014-Aug-18 12:34N 35°35' E 139°52'0 0.0
2014-Aug-18 11:34N 35°35' E 139°52'0 0.0
2014-Aug-18 10:34N 35°35' E 139°52'0 0.0
2014-Aug-18 09:34N 35°35' E 139°52'0 0.0
2014-Aug-18 08:34N 35°35' E 139°52'0 0.0
2014-Aug-18 07:34N 35°35' E 139°52'0 0.0
2014-Aug-18 06:34N 35°35' E 139°52'8 7.8
2014-Aug-18 05:34N 35°30' E 139°44'2 1.8
2014-Aug-18 04:34N 35°29' E 139°42'0 0.0
2014-Aug-18 03:34N 35°29' E 139°42'0 0.0
2014-Aug-18 02:34N 35°29' E 139°42'0 0.0
2014-Aug-18 01:34N 35°29' E 139°42'0 0.0
2014-Aug-18 00:33N 35°29' E 139°42'2 0.4
2014-Aug-17 18:34N 35°27' E 139°43'0 0.1
2014-Aug-17 17:34N 35°27' E 139°43'0 0.0
2014-Aug-17 16:34N 35°27' E 139°43'0 0.0
2014-Aug-17 15:34N 35°27' E 139°43'0 0.0
2014-Aug-17 14:34N 35°27' E 139°43'2 1.8
2014-Aug-17 13:34N 35°27' E 139°45'0 0.0
2014-Aug-17 12:34N 35°27' E 139°45'0 0.0
2014-Aug-17 11:34N 35°27' E 139°45'0 0.0
2014-Aug-17 10:34N 35°27' E 139°45'0 0.1
2014-Aug-17 09:33N 35°27' E 139°45'0 0.0
2014-Aug-17 08:34N 35°27' E 139°45'0 0.0
2014-Aug-17 07:34N 35°27' E 139°45'0 0.0
2014-Aug-17 06:34N 35°27' E 139°45'0 0.0
2014-Aug-17 05:34N 35°27' E 139°45'3 2.6
2014-Aug-17 04:33N 35°29' E 139°48'0 0.0
2014-Aug-17 03:34N 35°29' E 139°48'0 0.0
2014-Aug-17 02:34N 35°29' E 139°48'0 0.0
2014-Aug-17 01:33N 35°29' E 139°48'3 2.7
2014-Aug-17 00:33N 35°31' E 139°46'3 2.7
2014-Aug-16 23:33N 35°30' E 139°49'1110.7
2014-Aug-16 22:34N 35°34' E 140°01'5 4.4
2014-Aug-16 21:29N 35°36' E 140°06'0 0.0
2014-Aug-16 20:32N 35°36' E 140°06'0 0.0
2014-Aug-16 19:32N 35°36' E 140°06'0 0.0
2014-Aug-16 18:32N 35°36' E 140°06'0 0.0
2014-Aug-16 17:32N 35°36' E 140°06'0 0.0
2014-Aug-16 16:29N 35°36' E 140°06'0 0.0
2014-Aug-16 15:29N 35°36' E 140°06'0 0.0
2014-Aug-16 14:29N 35°36' E 140°06'0 0.0
2014-Aug-16 13:32N 35°36' E 140°06'0 0.0
2014-Aug-16 12:23N 35°36' E 140°06'0 0.0
2014-Aug-16 11:32N 35°36' E 140°06'0 0.0
2014-Aug-16 10:32N 35°36' E 140°06'0 0.0
2014-Aug-16 09:32N 35°36' E 140°06'0 0.0
2014-Aug-16 08:32N 35°36' E 140°06'0 0.0
2014-Aug-16 07:29N 35°36' E 140°06'0 0.0
2014-Aug-16 06:32N 35°36' E 140°06'0 0.0
2014-Aug-16 05:29N 35°36' E 140°06'0 0.0
2014-Aug-16 04:32N 35°36' E 140°06'0 0.0
2014-Aug-16 03:26N 35°36' E 140°06'0 0.0
2014-Aug-16 02:29N 35°36' E 140°06'0 0.0
2014-Aug-16 01:29N 35°36' E 140°06'0 0.0
2014-Aug-16 00:26N 35°36' E 140°06'0 0.0
2014-Aug-15 23:20N 35°36' E 140°06'0 0.0
2014-Aug-15 22:26N 35°36' E 140°06'0 0.0
2014-Aug-15 21:32N 35°36' E 140°06'0 0.0
2014-Aug-15 20:32N 35°36' E 140°06'0 0.0
2014-Aug-15 19:29N 35°36' E 140°06'0 0.0
2014-Aug-15 18:26N 35°36' E 140°06'0 0.0
2014-Aug-15 17:29N 35°36' E 140°06'0 0.0
2014-Aug-15 16:26N 35°36' E 140°06'0 0.0
2014-Aug-15 15:32N 35°36' E 140°06'0 0.0
2014-Aug-15 14:20N 35°36' E 140°06'0 0.0
2014-Aug-15 13:32N 35°36' E 140°06'0 0.0
2014-Aug-15 12:32N 35°36' E 140°06'0 0.0
2014-Aug-15 11:32N 35°36' E 140°06'0 0.0
2014-Aug-15 10:29N 35°36' E 140°06'0 0.0
2014-Aug-15 09:29N 35°36' E 140°06'0 0.0
2014-Aug-15 08:29N 35°36' E 140°06'0 0.0
2014-Aug-15 07:23N 35°36' E 140°06'0 0.0
2014-Aug-15 06:26N 35°36' E 140°06'9 9.7
2014-Aug-15 05:34N 35°33' E 139°57'6 2.9
2014-Aug-15 03:25N 35°30' E 139°50'3 2.9
2014-Aug-15 02:17N 35°31' E 139°46'2 0.5
2014-Aug-14 22:33N 35°29' E 139°48'0 0.3
2014-Aug-14 21:10N 35°29' E 139°48'0 0.0
2014-Aug-14 20:22N 35°29' E 139°48'0 0.0
2014-Aug-14 18:19N 35°29' E 139°48'911.3
2014-Aug-14 17:33N 35°21' E 139°45'1010.5
2014-Aug-14 16:33N 35°10' E 139°46'1111.0
2014-Aug-14 15:33N 35°01' E 139°38'1211.9
2014-Aug-14 14:33N 34°54' E 139°27'  
Track history (hours):
 
Tides and Currents Weather Stations Pressure Air Temp Water Temp Dewpoint Dewpoint Depression Visibility Wind Speed Wind Dir Waves Ship Positions

Yuho Maru No.3

Last reported at 2014-Aug-21 09:34 UTC. Time now 2014-Aug-21 10:17 UTC.
Position N 35°36' E 140°06'.

Length 65 m; draft 4.2 m.

Type: Tanker. MMSI: 431000336.

Date/timePositionNaut miles runAvg speedWind from/ knotsBaromVisibWave heightAir tempDewpointWater temp
2014-Aug-21 09:34N 35°36' E 140°06'0 0.0
2014-Aug-21 08:34N 35°36' E 140°06'0 0.0
2014-Aug-21 07:33N 35°36' E 140°06'0 0.0
2014-Aug-21 06:33N 35°36' E 140°06'0 0.0
2014-Aug-21 05:33N 35°36' E 140°06'0 0.0
2014-Aug-21 04:34N 35°36' E 140°06'0 0.0
2014-Aug-21 03:33N 35°36' E 140°06'0 0.0
2014-Aug-21 02:33N 35°36' E 140°06'0 0.0
2014-Aug-21 01:33N 35°36' E 140°06'0 0.0
2014-Aug-21 00:33N 35°36' E 140°06'0 0.0
2014-Aug-20 23:33N 35°36' E 140°06'0 0.0
2014-Aug-20 22:33N 35°36' E 140°06'0 0.0
2014-Aug-20 21:33N 35°36' E 140°06'0 0.0
2014-Aug-20 20:34N 35°36' E 140°06'0 0.0
2014-Aug-20 19:33N 35°36' E 140°06'0 0.0
2014-Aug-20 18:33N 35°36' E 140°06'0 0.0
2014-Aug-20 17:34N 35°36' E 140°06'0 0.0
2014-Aug-20 16:34N 35°36' E 140°06'0 0.0
2014-Aug-20 15:33N 35°36' E 140°06'0 0.0
2014-Aug-20 14:33N 35°36' E 140°06'0 0.0
2014-Aug-20 13:34N 35°36' E 140°06'0 0.0
2014-Aug-20 12:33N 35°36' E 140°06'0 0.0
2014-Aug-20 11:34N 35°36' E 140°06'0 0.0
2014-Aug-20 10:34N 35°36' E 140°06'0 0.0
2014-Aug-20 09:33N 35°36' E 140°06'0 0.0
2014-Aug-20 08:33N 35°36' E 140°06'0 0.0
2014-Aug-20 07:33N 35°36' E 140°06'0 0.0
2014-Aug-20 06:33N 35°36' E 140°06'0 0.0
2014-Aug-20 05:33N 35°36' E 140°06'0 0.0
2014-Aug-20 04:33N 35°36' E 140°06'0 0.0
2014-Aug-20 03:33N 35°36' E 140°06'0 0.0
2014-Aug-20 02:34N 35°36' E 140°06'0 0.0
2014-Aug-20 01:34N 35°36' E 140°06'0 0.0
2014-Aug-20 00:34N 35°36' E 140°06'0 0.0
2014-Aug-19 23:34N 35°36' E 140°06'0 0.0
2014-Aug-19 22:33N 35°36' E 140°06'0 0.0
2014-Aug-19 21:33N 35°36' E 140°06'0 0.0
2014-Aug-19 20:33N 35°36' E 140°06'0 0.0
2014-Aug-19 19:33N 35°36' E 140°06'0 0.0
2014-Aug-19 18:34N 35°36' E 140°06'0 0.0
2014-Aug-19 17:34N 35°36' E 140°06'0 0.0
2014-Aug-19 16:33N 35°36' E 140°06'0 0.0
2014-Aug-19 15:33N 35°36' E 140°06'0 0.0
2014-Aug-19 14:34N 35°36' E 140°06'0 0.0
2014-Aug-19 13:33N 35°36' E 140°06'0 0.0
2014-Aug-19 12:33N 35°36' E 140°06'0 0.0
2014-Aug-19 11:34N 35°36' E 140°06'0 0.0
2014-Aug-19 10:34N 35°36' E 140°06'0 0.0
2014-Aug-19 09:33N 35°36' E 140°06'0 0.0
2014-Aug-19 08:33N 35°36' E 140°06'0 0.0
2014-Aug-19 07:33N 35°36' E 140°06'0 0.0
2014-Aug-19 06:33N 35°36' E 140°06'0 0.0
2014-Aug-19 05:33N 35°36' E 140°06'0 0.0
2014-Aug-19 04:33N 35°36' E 140°06'0 0.0
2014-Aug-19 03:33N 35°36' E 140°06'1111.0
2014-Aug-19 02:33N 35°35' E 139°53'3 3.1
2014-Aug-19 01:34N 35°37' E 139°50'3 2.9
2014-Aug-19 00:33N 35°35' E 139°52'0 0.0
2014-Aug-18 23:33N 35°35' E 139°52'0 0.0
2014-Aug-18 22:33N 35°35' E 139°52'0 0.0
2014-Aug-18 21:33N 35°35' E 139°52'0 0.0
2014-Aug-18 20:33N 35°35' E 139°52'0 0.0
2014-Aug-18 19:34N 35°35' E 139°52'0 0.0
2014-Aug-18 18:33N 35°35' E 139°52'0 0.0
2014-Aug-18 17:33N 35°35' E 139°52'0 0.0
2014-Aug-18 16:33N 35°35' E 139°52'0 0.0
2014-Aug-18 15:34N 35°35' E 139°52'0 0.0
2014-Aug-18 14:34N 35°35' E 139°52'0 0.0
2014-Aug-18 13:34N 35°35' E 139°52'0 0.0
2014-Aug-18 12:34N 35°35' E 139°52'0 0.0
2014-Aug-18 11:34N 35°35' E 139°52'0 0.0
2014-Aug-18 10:34N 35°35' E 139°52'0 0.0
2014-Aug-18 09:34N 35°35' E 139°52'0 0.0
2014-Aug-18 08:34N 35°35' E 139°52'0 0.0
2014-Aug-18 07:34N 35°35' E 139°52'0 0.0
2014-Aug-18 06:34N 35°35' E 139°52'8 7.8
2014-Aug-18 05:34N 35°30' E 139°44'2 1.8
2014-Aug-18 04:34N 35°29' E 139°42'0 0.0
2014-Aug-18 03:34N 35°29' E 139°42'0 0.0
2014-Aug-18 02:34N 35°29' E 139°42'0 0.0
2014-Aug-18 01:34N 35°29' E 139°42'0 0.0
2014-Aug-18 00:33N 35°29' E 139°42'2 0.4
2014-Aug-17 18:34N 35°27' E 139°43'0 0.1
2014-Aug-17 17:34N 35°27' E 139°43'0 0.0
2014-Aug-17 16:34N 35°27' E 139°43'0 0.0
2014-Aug-17 15:34N 35°27' E 139°43'0 0.0
2014-Aug-17 14:34N 35°27' E 139°43'2 1.8
2014-Aug-17 13:34N 35°27' E 139°45'0 0.0
2014-Aug-17 12:34N 35°27' E 139°45'0 0.0
2014-Aug-17 11:34N 35°27' E 139°45'0 0.0
2014-Aug-17 10:34N 35°27' E 139°45'0 0.1
2014-Aug-17 09:33N 35°27' E 139°45'0 0.0
2014-Aug-17 08:34N 35°27' E 139°45'0 0.0
2014-Aug-17 07:34N 35°27' E 139°45'0 0.0
2014-Aug-17 06:34N 35°27' E 139°45'0 0.0
2014-Aug-17 05:34N 35°27' E 139°45'3 2.6
2014-Aug-17 04:33N 35°29' E 139°48'0 0.0
2014-Aug-17 03:34N 35°29' E 139°48'0 0.0
2014-Aug-17 02:34N 35°29' E 139°48'0 0.0
2014-Aug-17 01:33N 35°29' E 139°48'3 2.7
2014-Aug-17 00:33N 35°31' E 139°46'3 2.7
2014-Aug-16 23:33N 35°30' E 139°49'1110.7
2014-Aug-16 22:34N 35°34' E 140°01'5 4.4
2014-Aug-16 21:29N 35°36' E 140°06'0 0.0
2014-Aug-16 20:32N 35°36' E 140°06'0 0.0
2014-Aug-16 19:32N 35°36' E 140°06'0 0.0
2014-Aug-16 18:32N 35°36' E 140°06'0 0.0
2014-Aug-16 17:32N 35°36' E 140°06'0 0.0
2014-Aug-16 16:29N 35°36' E 140°06'0 0.0
2014-Aug-16 15:29N 35°36' E 140°06'0 0.0
2014-Aug-16 14:29N 35°36' E 140°06'0 0.0
2014-Aug-16 13:32N 35°36' E 140°06'0 0.0
2014-Aug-16 12:23N 35°36' E 140°06'0 0.0
2014-Aug-16 11:32N 35°36' E 140°06'0 0.0
2014-Aug-16 10:32N 35°36' E 140°06'0 0.0
2014-Aug-16 09:32N 35°36' E 140°06'0 0.0
2014-Aug-16 08:32N 35°36' E 140°06'0 0.0
2014-Aug-16 07:29N 35°36' E 140°06'0 0.0
2014-Aug-16 06:32N 35°36' E 140°06'0 0.0
2014-Aug-16 05:29N 35°36' E 140°06'0 0.0
2014-Aug-16 04:32N 35°36' E 140°06'0 0.0
2014-Aug-16 03:26N 35°36' E 140°06'0 0.0
2014-Aug-16 02:29N 35°36' E 140°06'0 0.0
2014-Aug-16 01:29N 35°36' E 140°06'0 0.0
2014-Aug-16 00:26N 35°36' E 140°06'0 0.0
2014-Aug-15 23:20N 35°36' E 140°06'0 0.0
2014-Aug-15 22:26N 35°36' E 140°06'0 0.0
2014-Aug-15 21:32N 35°36' E 140°06'0 0.0
2014-Aug-15 20:32N 35°36' E 140°06'0 0.0
2014-Aug-15 19:29N 35°36' E 140°06'0 0.0
2014-Aug-15 18:26N 35°36' E 140°06'0 0.0
2014-Aug-15 17:29N 35°36' E 140°06'0 0.0
2014-Aug-15 16:26N 35°36' E 140°06'0 0.0
2014-Aug-15 15:32N 35°36' E 140°06'0 0.0
2014-Aug-15 14:20N 35°36' E 140°06'0 0.0
2014-Aug-15 13:32N 35°36' E 140°06'0 0.0
2014-Aug-15 12:32N 35°36' E 140°06'0 0.0
2014-Aug-15 11:32N 35°36' E 140°06'0 0.0
2014-Aug-15 10:29N 35°36' E 140°06'0 0.0
2014-Aug-15 09:29N 35°36' E 140°06'0 0.0
2014-Aug-15 08:29N 35°36' E 140°06'0 0.0
2014-Aug-15 07:23N 35°36' E 140°06'0 0.0
2014-Aug-15 06:26N 35°36' E 140°06'9 9.7
2014-Aug-15 05:34N 35°33' E 139°57'6 2.9
2014-Aug-15 03:25N 35°30' E 139°50'3 2.9
2014-Aug-15 02:17N 35°31' E 139°46'2 0.5
2014-Aug-14 22:33N 35°29' E 139°48'0 0.3
2014-Aug-14 21:10N 35°29' E 139°48'0 0.0
2014-Aug-14 20:22N 35°29' E 139°48'0 0.0
2014-Aug-14 18:19N 35°29' E 139°48'911.3
2014-Aug-14 17:33N 35°21' E 139°45'1010.5
2014-Aug-14 16:33N 35°10' E 139°46'1111.0
2014-Aug-14 15:33N 35°01' E 139°38'1211.9
2014-Aug-14 14:33N 34°54' E 139°27'  

Dump ship's entire track history